createdAt,value
2022-10-18T00:00:02.982Z,3.40
2022-10-18T00:03:05.639Z,3.60
2022-10-18T00:06:10.108Z,4.13
2022-10-18T00:09:12.921Z,3.87
2022-10-18T00:12:16.889Z,3.42
2022-10-18T00:15:19.779Z,4.90
2022-10-18T00:18:23.077Z,3.78
2022-10-18T00:21:26.772Z,3.40
2022-10-18T00:24:29.471Z,4.57
2022-10-18T00:27:33.793Z,3.25
2022-10-18T00:30:36.455Z,4.40
2022-10-18T00:33:39.603Z,3.97
2022-10-18T00:36:43.069Z,4.25
2022-10-18T00:42:49.766Z,5.00
2022-10-18T00:45:52.409Z,4.23
2022-10-18T00:48:57.234Z,3.85
2022-10-18T00:52:07.682Z,3.97
2022-10-18T00:55:11.191Z,4.90
2022-10-18T01:01:18.825Z,4.37
2022-10-18T01:04:22.208Z,4.78
2022-10-18T01:07:35.192Z,4.10
2022-10-18T01:10:44.089Z,3.30
2022-10-18T01:14:02.330Z,3.83
2022-10-18T01:17:09.222Z,3.70
2022-10-18T01:20:32.267Z,3.70
2022-10-18T01:23:58.809Z,4.32
2022-10-18T01:27:36.160Z,3.77
2022-10-18T01:30:47.981Z,4.10
2022-10-18T01:33:53.548Z,3.73
2022-10-18T01:36:57.743Z,3.90
2022-10-18T01:40:00.876Z,4.10
2022-10-18T01:43:04.165Z,3.38
2022-10-18T01:46:09.473Z,4.28
2022-10-18T01:49:12.109Z,3.83
2022-10-18T01:52:15.590Z,3.83
2022-10-18T01:58:26.635Z,3.80
2022-10-18T02:01:36.300Z,3.73
2022-10-18T02:04:45.530Z,4.20
2022-10-18T02:08:00.339Z,4.77
2022-10-18T02:11:17.642Z,3.53
2022-10-18T02:14:21.479Z,3.40
2022-10-18T02:17:27.175Z,4.50
2022-10-18T02:20:32.372Z,3.47
2022-10-18T02:23:35.330Z,3.37
2022-10-18T02:26:38.139Z,4.13
2022-10-18T02:29:42.337Z,4.47
2022-10-18T02:32:50.935Z,4.03
2022-10-18T02:35:59.870Z,3.80
2022-10-18T02:39:06.251Z,3.07
2022-10-18T02:42:11.690Z,3.60
2022-10-18T02:45:14.834Z,3.97
2022-10-18T02:48:19.034Z,3.53
2022-10-18T02:51:21.719Z,4.20
2022-10-18T02:54:24.820Z,4.47
2022-10-18T02:57:27.701Z,3.97
2022-10-18T03:00:30.382Z,3.88
2022-10-18T03:03:34.275Z,3.50
2022-10-18T03:06:36.941Z,4.30
2022-10-18T03:09:39.577Z,3.97
2022-10-18T03:12:42.247Z,3.70
2022-10-18T03:15:44.983Z,3.47
2022-10-18T03:18:49.017Z,4.03
2022-10-18T03:21:51.671Z,3.60
2022-10-18T03:24:54.544Z,4.50
2022-10-18T03:27:57.210Z,3.78
2022-10-18T03:31:02.073Z,3.97
2022-10-18T03:34:06.068Z,3.83
2022-10-18T03:37:08.738Z,3.97
2022-10-18T03:40:12.117Z,3.95
2022-10-18T03:43:14.848Z,3.40
2022-10-18T03:46:17.503Z,3.65
2022-10-18T03:49:21.555Z,3.17
2022-10-18T03:52:24.190Z,3.40
2022-10-18T03:55:26.825Z,3.80
2022-10-18T03:58:29.622Z,4.78
2022-10-18T04:01:32.548Z,3.70
2022-10-18T04:04:36.665Z,3.90
2022-10-18T04:07:39.505Z,3.33
2022-10-18T04:10:42.743Z,4.07
2022-10-18T04:13:45.296Z,4.18
2022-10-18T04:16:48.040Z,4.10
2022-10-18T04:19:52.023Z,4.60
2022-10-18T04:22:57.539Z,3.43
2022-10-18T04:26:00.190Z,3.80
2022-10-18T04:29:02.916Z,3.60
2022-10-18T04:32:05.930Z,4.78
2022-10-18T04:35:11.485Z,3.95
2022-10-18T04:38:14.884Z,3.80
2022-10-18T04:41:17.518Z,4.55
2022-10-18T04:44:20.251Z,4.30
2022-10-18T04:47:23.092Z,4.10
2022-10-18T04:50:27.083Z,3.53
2022-10-18T04:53:29.872Z,2.90
2022-10-18T04:56:32.708Z,2.97
2022-10-18T04:59:35.363Z,2.15
2022-10-18T05:02:38.159Z,2.55
2022-10-18T05:06:00.937Z,3.17
2022-10-18T05:09:05.106Z,3.07
2022-10-18T05:12:07.835Z,3.22
2022-10-18T05:15:11.511Z,3.28
2022-10-18T05:18:14.292Z,3.77
2022-10-18T05:21:18.494Z,3.90
2022-10-18T05:24:23.038Z,3.47
2022-10-18T05:27:29.274Z,3.33
2022-10-18T05:30:32.015Z,4.17
2022-10-18T05:33:35.098Z,3.22
2022-10-18T05:36:39.222Z,3.60
2022-10-18T05:39:41.856Z,4.67
2022-10-18T05:42:44.824Z,4.35
2022-10-18T05:45:50.751Z,5.32
2022-10-18T05:48:53.360Z,3.83
2022-10-18T05:51:57.455Z,4.28
2022-10-18T05:55:00.128Z,4.10
2022-10-18T05:58:02.831Z,5.45
2022-10-18T06:01:06.724Z,3.70
2022-10-18T06:04:10.186Z,4.30
2022-10-18T06:10:16.762Z,4.05
2022-10-18T06:13:19.376Z,4.18
2022-10-18T06:16:24.815Z,3.85
2022-10-18T06:19:29.958Z,3.90
2022-10-18T06:22:33.985Z,3.97
2022-10-18T06:25:36.622Z,3.93
2022-10-18T06:28:39.608Z,3.42
2022-10-18T06:31:42.313Z,2.17
2022-10-18T06:34:44.939Z,2.83
2022-10-18T06:37:48.994Z,2.28
2022-10-18T06:40:51.690Z,2.00
2022-10-18T06:43:57.360Z,1.98
2022-10-18T06:47:00.052Z,2.20
2022-10-18T06:50:02.826Z,3.20
2022-10-18T06:53:08.704Z,2.67
2022-10-18T06:56:13.035Z,2.17
2022-10-18T06:59:16.002Z,2.57
2022-10-18T07:02:18.661Z,2.25
2022-10-18T07:05:21.452Z,2.22
2022-10-18T07:08:25.632Z,1.73
2022-10-18T07:11:28.301Z,1.63
2022-10-18T07:14:31.126Z,1.58
2022-10-18T07:17:34.069Z,2.30
2022-10-18T07:20:36.947Z,2.17
2022-10-18T07:23:42.764Z,1.60
2022-10-18T07:26:45.361Z,1.73
2022-10-18T07:29:48.719Z,2.10
2022-10-18T07:32:52.480Z,1.67
2022-10-18T07:35:55.049Z,1.73
2022-10-18T07:38:59.616Z,2.15
2022-10-18T07:42:02.254Z,2.37
2022-10-18T07:45:05.345Z,1.83
2022-10-18T07:48:08.056Z,2.65
2022-10-18T07:51:11.017Z,2.08
2022-10-18T07:54:14.967Z,1.83
2022-10-18T07:57:17.589Z,2.20
2022-10-18T08:00:20.512Z,2.75
2022-10-18T08:03:23.155Z,2.35
2022-10-18T08:06:25.899Z,2.03
2022-10-18T08:09:30.018Z,2.15
2022-10-18T08:12:32.700Z,2.20
2022-10-18T08:15:35.297Z,3.13
2022-10-18T08:18:39.043Z,2.53
2022-10-18T08:21:42.062Z,2.40
2022-10-18T08:24:46.192Z,2.15
2022-10-18T08:27:49.136Z,1.63
2022-10-18T08:30:51.791Z,1.52
2022-10-18T08:33:56.115Z,1.67
2022-10-18T08:36:58.840Z,1.80
2022-10-18T08:40:02.881Z,2.40
2022-10-18T08:43:08.477Z,1.93
2022-10-18T08:46:13.354Z,2.60
2022-10-18T08:49:24.181Z,2.30
2022-10-18T08:52:33.228Z,2.10
2022-10-18T08:55:40.145Z,1.83
2022-10-18T08:58:44.918Z,1.60
2022-10-18T09:01:58.258Z,2.00
2022-10-18T09:08:35.014Z,1.87
2022-10-18T09:11:48.196Z,2.00
2022-10-18T09:15:16.408Z,2.03
2022-10-18T09:18:32.980Z,2.00
2022-10-18T09:21:43.260Z,2.23
2022-10-18T09:24:49.566Z,2.20
2022-10-18T09:27:56.210Z,2.10
2022-10-18T09:31:03.549Z,2.10
2022-10-18T09:34:10.435Z,1.90
2022-10-18T09:37:14.929Z,1.70
2022-10-18T09:40:20.799Z,2.30
2022-10-18T09:43:27.152Z,2.50
2022-10-18T09:46:33.682Z,2.57
2022-10-18T09:49:40.262Z,2.57
2022-10-18T09:52:47.216Z,2.83
2022-10-18T09:55:57.877Z,2.40
2022-10-18T09:59:02.030Z,2.27
2022-10-18T10:02:05.200Z,2.83
2022-10-18T10:08:18.126Z,2.43
2022-10-18T10:11:29.628Z,2.28
2022-10-18T10:14:44.186Z,2.07
2022-10-18T10:17:55.126Z,2.83
2022-10-18T10:21:00.205Z,2.27
2022-10-18T10:24:04.512Z,2.47
2022-10-18T10:27:08.545Z,2.37
2022-10-18T10:30:25.930Z,2.40
2022-10-18T10:33:34.686Z,2.43
2022-10-18T10:36:47.672Z,3.07
2022-10-18T10:40:17.786Z,2.40
2022-10-18T10:43:36.927Z,3.13
2022-10-18T10:46:41.564Z,2.83
2022-10-18T10:49:47.280Z,2.70
2022-10-18T10:52:50.035Z,2.40
2022-10-18T10:55:54.845Z,2.38
2022-10-18T10:59:03.049Z,2.40
2022-10-18T11:02:23.819Z,2.60
2022-10-18T11:05:29.295Z,3.87
2022-10-18T11:08:36.562Z,2.97
2022-10-18T11:11:42.513Z,2.20
2022-10-18T11:14:48.286Z,2.33
2022-10-18T11:18:03.999Z,2.10
2022-10-18T11:21:10.880Z,2.60
2022-10-18T11:24:16.718Z,2.60
2022-10-18T11:27:24.749Z,2.80
2022-10-18T11:30:38.113Z,2.90
2022-10-18T11:34:09.932Z,2.33
2022-10-18T11:37:30.343Z,2.40
2022-10-18T11:40:48.345Z,2.33
2022-10-18T11:44:03.055Z,2.35
2022-10-18T11:47:13.185Z,2.30
2022-10-18T11:50:26.224Z,2.75
2022-10-18T11:56:37.943Z,2.10
2022-10-18T11:59:46.907Z,2.00
2022-10-18T12:02:58.555Z,2.20
2022-10-18T12:06:06.465Z,2.40
2022-10-18T12:09:17.483Z,1.85
2022-10-18T12:12:24.184Z,1.63
2022-10-18T12:15:28.535Z,2.17
2022-10-18T12:18:31.633Z,2.13
2022-10-18T12:21:35.690Z,2.42
2022-10-18T12:24:38.727Z,2.00
2022-10-18T12:27:45.308Z,1.63
2022-10-18T12:30:52.667Z,1.40
2022-10-18T12:33:59.082Z,1.25
2022-10-18T12:37:27.737Z,1.50
2022-10-18T12:40:35.606Z,1.53
2022-10-18T12:43:38.243Z,1.40
2022-10-18T12:46:45.099Z,1.42
2022-10-18T12:49:57.155Z,1.27
2022-10-18T12:53:06.576Z,1.57
2022-10-18T12:56:37.573Z,1.70
2022-10-18T12:59:43.001Z,1.40
2022-10-18T13:02:45.745Z,1.40
2022-10-18T13:05:56.701Z,1.95
2022-10-18T13:09:20.752Z,2.40
2022-10-18T13:12:48.273Z,2.17
2022-10-18T13:15:55.048Z,1.60
2022-10-18T13:19:00.483Z,1.73
2022-10-18T13:22:18.945Z,1.63
2022-10-18T13:25:27.366Z,1.58
2022-10-18T13:28:35.650Z,1.48
2022-10-18T13:31:42.886Z,1.30
2022-10-18T13:34:45.632Z,1.05
2022-10-18T13:37:58.997Z,0.80
2022-10-18T13:41:03.942Z,1.23
2022-10-18T13:44:25.750Z,1.20
2022-10-18T13:47:35.752Z,1.17
2022-10-18T13:50:39.289Z,0.60
2022-10-18T13:53:48.205Z,0.95
2022-10-18T13:57:03.177Z,1.30
2022-10-18T14:00:23.032Z,0.90
2022-10-18T14:03:57.685Z,1.27
2022-10-18T14:07:03.402Z,1.40
2022-10-18T14:10:11.350Z,1.50
2022-10-18T14:13:20.834Z,1.10
2022-10-18T14:16:35.970Z,1.33
2022-10-18T14:19:42.027Z,1.48
2022-10-18T14:22:47.593Z,1.48
2022-10-18T14:25:50.507Z,1.40
2022-10-18T14:32:10.625Z,1.27
2022-10-18T14:35:37.117Z,1.50
2022-10-18T14:38:46.767Z,1.70
2022-10-18T14:41:51.565Z,1.60
2022-10-18T14:44:56.658Z,1.73
2022-10-18T14:48:15.268Z,1.60
2022-10-18T14:51:18.079Z,1.77
2022-10-18T14:54:27.637Z,1.48
2022-10-18T14:57:37.152Z,1.80
2022-10-18T15:00:43.887Z,1.67
2022-10-18T15:03:49.489Z,1.57
2022-10-18T15:06:52.193Z,1.80
2022-10-18T15:09:54.959Z,1.40
2022-10-18T15:13:16.099Z,2.00
2022-10-18T15:16:21.943Z,1.93
2022-10-18T15:19:29.997Z,1.50
2022-10-18T15:22:33.735Z,1.77
2022-10-18T15:25:36.490Z,1.50
2022-10-18T15:28:49.524Z,1.33
2022-10-18T15:31:53.793Z,1.23
2022-10-18T15:34:57.190Z,2.03
2022-10-18T15:38:02.508Z,1.80
2022-10-18T15:41:39.510Z,2.10
2022-10-18T15:44:49.308Z,1.90
2022-10-18T15:48:05.125Z,2.20
2022-10-18T15:51:09.005Z,2.47
2022-10-18T15:54:18.356Z,2.57
2022-10-18T15:57:21.129Z,2.40
2022-10-18T16:00:23.718Z,2.22
2022-10-18T16:03:28.423Z,2.08
2022-10-18T16:06:32.375Z,1.93
2022-10-18T16:09:35.264Z,1.80
2022-10-18T16:12:38.178Z,2.13
2022-10-18T16:15:41.148Z,2.22
2022-10-18T16:18:45.329Z,2.17
2022-10-18T16:21:48.040Z,1.80
2022-10-18T16:24:52.566Z,2.03
2022-10-18T16:27:55.223Z,2.60
2022-10-18T16:30:59.824Z,1.90
2022-10-18T16:34:04.164Z,2.17
2022-10-18T16:37:06.967Z,2.70
2022-10-18T16:40:22.906Z,1.83
2022-10-18T16:43:25.946Z,1.90
2022-10-18T16:46:30.111Z,2.13
2022-10-18T16:49:34.249Z,2.00
2022-10-18T16:52:37.363Z,2.73
2022-10-18T16:55:41.485Z,2.47
2022-10-18T16:58:44.627Z,2.00
2022-10-18T17:01:47.566Z,2.05
2022-10-18T17:04:51.663Z,2.88
2022-10-18T17:07:54.401Z,2.00
2022-10-18T17:10:58.562Z,2.53
2022-10-18T17:14:01.246Z,2.30
2022-10-18T17:17:03.952Z,2.67
2022-10-18T17:20:09.642Z,2.72
2022-10-18T17:23:12.569Z,2.90
2022-10-18T17:26:28.359Z,2.70
2022-10-18T17:29:32.162Z,2.57
2022-10-18T17:32:34.850Z,2.80
2022-10-18T17:35:39.646Z,2.67
2022-10-18T17:38:42.495Z,3.37
2022-10-18T17:41:45.318Z,3.05
2022-10-18T17:44:48.248Z,3.20
2022-10-18T17:47:51.273Z,3.10
2022-10-18T17:50:55.516Z,6.18
2022-10-18T17:53:58.191Z,2.93
2022-10-18T17:57:00.958Z,2.80
2022-10-18T18:00:05.926Z,3.10
2022-10-18T18:03:08.739Z,3.13
2022-10-18T18:06:17.965Z,3.42
2022-10-18T18:09:21.200Z,3.30
2022-10-18T18:15:27.075Z,2.85
2022-10-18T18:18:29.922Z,3.55
2022-10-18T18:21:34.438Z,4.05
2022-10-18T18:24:37.420Z,4.27
2022-10-18T18:27:40.232Z,4.05
2022-10-18T18:30:43.130Z,4.03
2022-10-18T18:33:46.321Z,4.20
2022-10-18T18:36:51.934Z,4.50
2022-10-18T18:39:54.587Z,4.40
2022-10-18T18:43:12.083Z,4.80
2022-10-18T18:46:21.775Z,4.10
2022-10-18T18:49:24.589Z,3.90
2022-10-18T18:52:28.807Z,3.83
2022-10-18T18:55:33.823Z,4.07
2022-10-18T18:58:38.133Z,4.80
2022-10-18T19:01:41.420Z,5.63
2022-10-18T19:04:44.372Z,5.65
2022-10-18T19:07:48.569Z,4.63
2022-10-18T19:10:51.352Z,4.70
2022-10-18T19:13:54.363Z,4.97
2022-10-18T19:16:59.000Z,5.55
2022-10-18T19:20:02.408Z,4.83
2022-10-18T19:26:12.836Z,5.43
2022-10-18T19:29:16.953Z,5.50
2022-10-18T19:32:19.847Z,7.10
2022-10-18T19:35:22.950Z,6.88
2022-10-18T19:38:27.149Z,6.00
2022-10-18T19:41:30.096Z,5.90
2022-10-18T19:44:33.975Z,6.88
2022-10-18T19:47:38.551Z,6.77
2022-10-18T19:50:41.341Z,5.80
2022-10-18T19:53:45.573Z,6.00
2022-10-18T19:56:48.545Z,6.33
2022-10-18T19:59:51.237Z,4.88
2022-10-18T20:02:53.988Z,5.95
2022-10-18T20:05:57.830Z,5.90
2022-10-18T20:09:01.991Z,5.60
2022-10-18T20:12:05.183Z,5.63
2022-10-18T20:15:09.406Z,4.57
2022-10-18T20:18:12.187Z,5.77
2022-10-18T20:21:18.028Z,6.07
2022-10-18T20:24:22.163Z,4.43
2022-10-18T20:27:27.408Z,5.60
2022-10-18T20:30:30.410Z,5.47
2022-10-18T20:33:34.004Z,5.65
2022-10-18T20:36:37.150Z,5.60
2022-10-18T20:39:41.835Z,5.70
2022-10-18T20:42:44.549Z,5.40
2022-10-18T20:45:47.300Z,5.35
2022-10-18T20:48:50.653Z,5.25
2022-10-18T20:54:57.512Z,5.70
2022-10-18T20:58:00.224Z,5.77
2022-10-18T21:01:07.862Z,5.70
2022-10-18T21:04:11.497Z,5.97
2022-10-18T21:07:14.277Z,5.60
2022-10-18T21:10:18.525Z,5.40
2022-10-18T21:13:21.379Z,5.93
2022-10-18T21:16:24.296Z,5.75
2022-10-18T21:19:28.174Z,6.38
2022-10-18T21:22:31.290Z,5.53
2022-10-18T21:25:35.727Z,5.85
2022-10-18T21:28:38.606Z,6.37
2022-10-18T21:31:43.338Z,5.38
2022-10-18T21:34:46.059Z,5.63
2022-10-18T21:37:48.783Z,6.28
2022-10-18T21:40:52.814Z,5.35
2022-10-18T21:43:56.638Z,5.60
2022-10-18T21:46:59.251Z,5.67
2022-10-18T21:50:01.965Z,6.10
2022-10-18T21:53:04.586Z,5.38
2022-10-18T21:56:10.696Z,5.45
2022-10-18T21:59:13.895Z,5.20
2022-10-18T22:02:16.619Z,5.07
2022-10-18T22:05:19.818Z,5.38
2022-10-18T22:08:22.958Z,5.53
2022-10-18T22:11:29.125Z,4.97
2022-10-18T22:14:31.775Z,5.80
2022-10-18T22:17:34.676Z,6.47
2022-10-18T22:20:37.644Z,5.45
2022-10-18T22:23:42.335Z,5.40
2022-10-18T22:26:47.112Z,5.80
2022-10-18T22:29:49.765Z,5.70
2022-10-18T22:32:52.486Z,6.00
2022-10-18T22:35:55.147Z,5.72
2022-10-18T22:38:57.863Z,6.03
2022-10-18T22:42:01.920Z,5.63
2022-10-18T22:45:05.103Z,5.30
2022-10-18T22:48:07.864Z,5.43
2022-10-18T22:51:11.129Z,5.97
2022-10-18T22:54:13.836Z,6.18
2022-10-18T22:57:17.809Z,6.30
2022-10-18T23:00:20.437Z,6.50
2022-10-18T23:03:23.196Z,6.50
2022-10-18T23:06:27.250Z,6.18
2022-10-18T23:09:29.913Z,6.07
2022-10-18T23:12:34.426Z,6.40
2022-10-18T23:15:39.037Z,6.17
2022-10-18T23:18:41.724Z,5.57
2022-10-18T23:21:44.365Z,6.40
2022-10-18T23:24:47.081Z,6.20
2022-10-18T23:27:51.145Z,6.00
2022-10-18T23:30:53.842Z,6.67
2022-10-18T23:33:58.321Z,6.90
2022-10-18T23:37:00.939Z,6.60
2022-10-18T23:40:03.592Z,7.35
2022-10-18T23:43:07.565Z,8.18
2022-10-18T23:46:10.270Z,8.57
2022-10-18T23:49:13.048Z,8.18
2022-10-18T23:52:15.752Z,9.20
2022-10-18T23:55:18.417Z,9.07
2022-10-18T23:58:22.601Z,7.88
